sensor_id;sensor_type;location;lat;lon;timestamp;temperature;humidity
3699;DHT22;1865;50.918;7.092;2023-06-14T00:01:20;24.00;33.20
3699;DHT22;1865;50.918;7.092;2023-06-14T00:03:47;24.00;32.80
3699;DHT22;1865;50.918;7.092;2023-06-14T00:06:13;23.90;32.90
3699;DHT22;1865;50.918;7.092;2023-06-14T00:08:39;23.90;32.00
3699;DHT22;1865;50.918;7.092;2023-06-14T00:11:06;23.90;32.60
3699;DHT22;1865;50.918;7.092;2023-06-14T00:13:32;23.80;32.90
3699;DHT22;1865;50.918;7.092;2023-06-14T00:15:57;23.80;32.50
3699;DHT22;1865;50.918;7.092;2023-06-14T00:18:23;23.70;32.50
3699;DHT22;1865;50.918;7.092;2023-06-14T00:20:55;23.70;31.80
3699;DHT22;1865;50.918;7.092;2023-06-14T00:23:20;23.60;31.80
3699;DHT22;1865;50.918;7.092;2023-06-14T00:25:46;23.50;32.30
3699;DHT22;1865;50.918;7.092;2023-06-14T00:28:12;23.50;32.50
3699;DHT22;1865;50.918;7.092;2023-06-14T00:30:37;23.30;33.20
3699;DHT22;1865;50.918;7.092;2023-06-14T00:33:03;23.10;34.40
3699;DHT22;1865;50.918;7.092;2023-06-14T00:35:29;23.00;35.30
3699;DHT22;1865;50.918;7.092;2023-06-14T00:37:54;22.90;35.80
3699;DHT22;1865;50.918;7.092;2023-06-14T00:40:21;22.80;36.00
3699;DHT22;1865;50.918;7.092;2023-06-14T00:42:47;22.70;35.90
3699;DHT22;1865;50.918;7.092;2023-06-14T00:45:12;22.60;35.80
3699;DHT22;1865;50.918;7.092;2023-06-14T00:47:38;22.50;35.70
3699;DHT22;1865;50.918;7.092;2023-06-14T00:50:07;22.40;35.30
3699;DHT22;1865;50.918;7.092;2023-06-14T00:52:33;22.30;35.60
3699;DHT22;1865;50.918;7.092;2023-06-14T00:54:59;22.20;35.50
3699;DHT22;1865;50.918;7.092;2023-06-14T00:57:26;22.20;35.40
3699;DHT22;1865;50.918;7.092;2023-06-14T00:59:52;22.20;35.90
3699;DHT22;1865;50.918;7.092;2023-06-14T01:02:18;22.10;36.10
3699;DHT22;1865;50.918;7.092;2023-06-14T01:04:46;22.10;36.40
3699;DHT22;1865;50.918;7.092;2023-06-14T01:13:07;21.90;38.20
3699;DHT22;1865;50.918;7.092;2023-06-14T01:15:34;21.80;38.80
3699;DHT22;1865;50.918;7.092;2023-06-14T01:18:00;21.80;38.80
3699;DHT22;1865;50.918;7.092;2023-06-14T01:20:31;21.70;38.60
3699;DHT22;1865;50.918;7.092;2023-06-14T01:22:57;21.70;38.80
3699;DHT22;1865;50.918;7.092;2023-06-14T01:25:23;21.70;38.80
3699;DHT22;1865;50.918;7.092;2023-06-14T01:28:00;21.70;38.90
3699;DHT22;1865;50.918;7.092;2023-06-14T01:30:28;21.60;38.80
3699;DHT22;1865;50.918;7.092;2023-06-14T01:32:55;21.50;38.90
3699;DHT22;1865;50.918;7.092;2023-06-14T01:35:21;21.40;39.00
3699;DHT22;1865;50.918;7.092;2023-06-14T01:37:48;21.30;39.00
3699;DHT22;1865;50.918;7.092;2023-06-14T01:40:15;21.30;38.90
3699;DHT22;1865;50.918;7.092;2023-06-14T01:42:41;21.30;38.80
3699;DHT22;1865;50.918;7.092;2023-06-14T01:45:09;21.20;38.70
3699;DHT22;1865;50.918;7.092;2023-06-14T01:47:35;21.20;38.40
3699;DHT22;1865;50.918;7.092;2023-06-14T01:50:02;21.10;37.90
3699;DHT22;1865;50.918;7.092;2023-06-14T01:52:28;21.10;37.70
3699;DHT22;1865;50.918;7.092;2023-06-14T01:54:54;21.00;37.50
3699;DHT22;1865;50.918;7.092;2023-06-14T01:57:19;20.90;37.40
3699;DHT22;1865;50.918;7.092;2023-06-14T01:59:46;20.90;37.50
3699;DHT22;1865;50.918;7.092;2023-06-14T02:02:14;20.80;38.30
3699;DHT22;1865;50.918;7.092;2023-06-14T02:04:40;20.80;39.20
3699;DHT22;1865;50.918;7.092;2023-06-14T02:07:06;20.90;39.90
3699;DHT22;1865;50.918;7.092;2023-06-14T02:09:31;20.90;40.00
3699;DHT22;1865;50.918;7.092;2023-06-14T02:11:57;20.90;40.10
3699;DHT22;1865;50.918;7.092;2023-06-14T02:14:24;20.70;39.50
3699;DHT22;1865;50.918;7.092;2023-06-14T02:16:49;20.70;40.10
3699;DHT22;1865;50.918;7.092;2023-06-14T02:19:16;20.50;40.40
3699;DHT22;1865;50.918;7.092;2023-06-14T02:21:42;20.30;40.60
3699;DHT22;1865;50.918;7.092;2023-06-14T02:24:07;20.20;40.80
3699;DHT22;1865;50.918;7.092;2023-06-14T02:26:33;20.20;40.60
3699;DHT22;1865;50.918;7.092;2023-06-14T02:28:59;20.10;40.80
3699;DHT22;1865;50.918;7.092;2023-06-14T02:31:25;20.10;40.60
3699;DHT22;1865;50.918;7.092;2023-06-14T02:33:50;20.10;40.80
3699;DHT22;1865;50.918;7.092;2023-06-14T02:36:16;20.10;40.90
3699;DHT22;1865;50.918;7.092;2023-06-14T02:38:41;20.20;40.60
3699;DHT22;1865;50.918;7.092;2023-06-14T02:41:07;20.20;40.50
3699;DHT22;1865;50.918;7.092;2023-06-14T02:43:32;20.20;41.10
3699;DHT22;1865;50.918;7.092;2023-06-14T02:45:58;20.10;41.40
3699;DHT22;1865;50.918;7.092;2023-06-14T02:48:24;20.10;41.60
3699;DHT22;1865;50.918;7.092;2023-06-14T02:50:49;20.20;41.10
3699;DHT22;1865;50.918;7.092;2023-06-14T02:53:15;20.20;41.00
3699;DHT22;1865;50.918;7.092;2023-06-14T02:55:41;20.20;40.30
3699;DHT22;1865;50.918;7.092;2023-06-14T02:58:07;20.20;41.00
3699;DHT22;1865;50.918;7.092;2023-06-14T03:00:32;20.30;40.80
3699;DHT22;1865;50.918;7.092;2023-06-14T03:02:58;20.30;40.60
3699;DHT22;1865;50.918;7.092;2023-06-14T03:05:27;20.30;40.90
3699;DHT22;1865;50.918;7.092;2023-06-14T03:07:53;20.20;40.90
3699;DHT22;1865;50.918;7.092;2023-06-14T03:10:19;20.10;41.70
3699;DHT22;1865;50.918;7.092;2023-06-14T03:12:45;20.00;41.70
3699;DHT22;1865;50.918;7.092;2023-06-14T03:15:10;19.90;41.90
3699;DHT22;1865;50.918;7.092;2023-06-14T03:17:38;19.80;42.40
3699;DHT22;1865;50.918;7.092;2023-06-14T03:20:05;19.70;42.20
3699;DHT22;1865;50.918;7.092;2023-06-14T03:22:31;19.70;42.80
3699;DHT22;1865;50.918;7.092;2023-06-14T03:24:59;19.70;42.60
3699;DHT22;1865;50.918;7.092;2023-06-14T03:27:25;19.60;42.70
3699;DHT22;1865;50.918;7.092;2023-06-14T03:29:51;19.50;43.20
3699;DHT22;1865;50.918;7.092;2023-06-14T03:32:16;19.50;42.90
3699;DHT22;1865;50.918;7.092;2023-06-14T03:34:42;19.50;42.70
3699;DHT22;1865;50.918;7.092;2023-06-14T03:37:08;19.50;43.20
3699;DHT22;1865;50.918;7.092;2023-06-14T03:39:33;19.50;42.60
3699;DHT22;1865;50.918;7.092;2023-06-14T03:41:59;19.40;43.00
3699;DHT22;1865;50.918;7.092;2023-06-14T03:44:26;19.30;42.90
3699;DHT22;1865;50.918;7.092;2023-06-14T03:46:52;19.20;43.90
3699;DHT22;1865;50.918;7.092;2023-06-14T03:49:18;19.30;44.00
3699;DHT22;1865;50.918;7.092;2023-06-14T03:51:44;19.20;43.60
3699;DHT22;1865;50.918;7.092;2023-06-14T03:54:10;19.20;44.00
3699;DHT22;1865;50.918;7.092;2023-06-14T03:56:35;19.20;44.10
3699;DHT22;1865;50.918;7.092;2023-06-14T03:59:01;19.20;44.30
3699;DHT22;1865;50.918;7.092;2023-06-14T04:01:27;19.20;44.80
3699;DHT22;1865;50.918;7.092;2023-06-14T04:03:56;19.20;44.80
3699;DHT22;1865;50.918;7.092;2023-06-14T04:06:22;19.20;44.90
3699;DHT22;1865;50.918;7.092;2023-06-14T04:08:50;19.20;44.50
3699;DHT22;1865;50.918;7.092;2023-06-14T04:11:16;19.30;44.50
3699;DHT22;1865;50.918;7.092;2023-06-14T04:13:41;19.40;44.40
3699;DHT22;1865;50.918;7.092;2023-06-14T04:16:07;19.40;44.10
3699;DHT22;1865;50.918;7.092;2023-06-14T04:18:32;19.40;44.10
3699;DHT22;1865;50.918;7.092;2023-06-14T04:20:58;19.40;44.70
3699;DHT22;1865;50.918;7.092;2023-06-14T04:23:24;19.30;44.40
3699;DHT22;1865;50.918;7.092;2023-06-14T04:25:50;19.30;44.50
3699;DHT22;1865;50.918;7.092;2023-06-14T04:28:16;19.40;45.30
3699;DHT22;1865;50.918;7.092;2023-06-14T04:30:43;19.40;44.60
3699;DHT22;1865;50.918;7.092;2023-06-14T04:33:08;19.40;44.80
3699;DHT22;1865;50.918;7.092;2023-06-14T04:35:36;19.50;44.80
3699;DHT22;1865;50.918;7.092;2023-06-14T04:38:02;19.50;45.20
3699;DHT22;1865;50.918;7.092;2023-06-14T04:40:30;19.70;45.10
3699;DHT22;1865;50.918;7.092;2023-06-14T04:42:56;19.80;44.80
3699;DHT22;1865;50.918;7.092;2023-06-14T04:45:22;19.90;44.60
3699;DHT22;1865;50.918;7.092;2023-06-14T04:47:49;20.00;44.20
3699;DHT22;1865;50.918;7.092;2023-06-14T04:50:16;20.10;44.10
3699;DHT22;1865;50.918;7.092;2023-06-14T04:52:41;20.20;44.30
3699;DHT22;1865;50.918;7.092;2023-06-14T04:55:08;20.20;44.40
3699;DHT22;1865;50.918;7.092;2023-06-14T04:57:33;20.10;44.60
3699;DHT22;1865;50.918;7.092;2023-06-14T05:00:00;20.20;44.40
3699;DHT22;1865;50.918;7.092;2023-06-14T05:02:26;20.20;44.70
3699;DHT22;1865;50.918;7.092;2023-06-14T05:04:52;20.30;44.50
3699;DHT22;1865;50.918;7.092;2023-06-14T05:07:18;20.30;44.60
3699;DHT22;1865;50.918;7.092;2023-06-14T05:09:44;20.40;44.70
3699;DHT22;1865;50.918;7.092;2023-06-14T05:12:10;20.40;44.30
3699;DHT22;1865;50.918;7.092;2023-06-14T05:14:36;20.50;43.90
3699;DHT22;1865;50.918;7.092;2023-06-14T05:17:02;20.60;43.20
3699;DHT22;1865;50.918;7.092;2023-06-14T05:19:31;20.70;42.30
3699;DHT22;1865;50.918;7.092;2023-06-14T05:21:56;20.80;41.80
3699;DHT22;1865;50.918;7.092;2023-06-14T05:24:22;20.90;41.40
3699;DHT22;1865;50.918;7.092;2023-06-14T05:26:47;21.00;41.20
3699;DHT22;1865;50.918;7.092;2023-06-14T05:29:14;21.10;41.00
3699;DHT22;1865;50.918;7.092;2023-06-14T05:31:39;21.20;40.30
3699;DHT22;1865;50.918;7.092;2023-06-14T05:34:05;21.30;40.30
3699;DHT22;1865;50.918;7.092;2023-06-14T05:36:31;21.30;39.80
3699;DHT22;1865;50.918;7.092;2023-06-14T05:38:56;21.50;39.60
3699;DHT22;1865;50.918;7.092;2023-06-14T05:41:25;21.50;39.10
3699;DHT22;1865;50.918;7.092;2023-06-14T05:43:54;21.60;38.40
3699;DHT22;1865;50.918;7.092;2023-06-14T05:46:20;21.70;38.00
3699;DHT22;1865;50.918;7.092;2023-06-14T05:48:48;21.70;37.10
3699;DHT22;1865;50.918;7.092;2023-06-14T05:51:14;21.80;37.30
3699;DHT22;1865;50.918;7.092;2023-06-14T05:53:39;21.90;37.40
3699;DHT22;1865;50.918;7.092;2023-06-14T05:56:05;21.90;37.20
3699;DHT22;1865;50.918;7.092;2023-06-14T05:58:31;22.00;37.70
3699;DHT22;1865;50.918;7.092;2023-06-14T06:00:56;22.00;37.20
3699;DHT22;1865;50.918;7.092;2023-06-14T06:03:23;22.20;36.40
3699;DHT22;1865;50.918;7.092;2023-06-14T06:05:48;22.20;36.00
3699;DHT22;1865;50.918;7.092;2023-06-14T06:08:14;22.30;35.60
3699;DHT22;1865;50.918;7.092;2023-06-14T06:10:42;22.40;35.50
3699;DHT22;1865;50.918;7.092;2023-06-14T06:13:07;22.50;35.30
3699;DHT22;1865;50.918;7.092;2023-06-14T06:15:33;22.60;35.10
3699;DHT22;1865;50.918;7.092;2023-06-14T06:17:58;22.60;34.40
3699;DHT22;1865;50.918;7.092;2023-06-14T06:20:24;22.70;34.50
3699;DHT22;1865;50.918;7.092;2023-06-14T06:22:57;22.80;33.80
3699;DHT22;1865;50.918;7.092;2023-06-14T06:25:24;22.80;33.10
3699;DHT22;1865;50.918;7.092;2023-06-14T06:27:51;22.90;34.10
3699;DHT22;1865;50.918;7.092;2023-06-14T06:30:17;23.00;34.20
3699;DHT22;1865;50.918;7.092;2023-06-14T06:32:43;23.00;33.70
3699;DHT22;1865;50.918;7.092;2023-06-14T06:35:08;23.10;34.40
3699;DHT22;1865;50.918;7.092;2023-06-14T06:37:36;23.20;32.90
3699;DHT22;1865;50.918;7.092;2023-06-14T06:40:02;23.20;33.30
3699;DHT22;1865;50.918;7.092;2023-06-14T06:42:29;23.30;33.00
3699;DHT22;1865;50.918;7.092;2023-06-14T06:44:54;23.30;33.60
3699;DHT22;1865;50.918;7.092;2023-06-14T06:47:20;23.30;33.00
3699;DHT22;1865;50.918;7.092;2023-06-14T06:49:45;23.40;32.60
3699;DHT22;1865;50.918;7.092;2023-06-14T06:52:11;23.40;33.20
3699;DHT22;1865;50.918;7.092;2023-06-14T06:54:36;23.60;33.00
3699;DHT22;1865;50.918;7.092;2023-06-14T06:57:02;23.60;33.00
3699;DHT22;1865;50.918;7.092;2023-06-14T06:59:28;23.70;32.80
3699;DHT22;1865;50.918;7.092;2023-06-14T07:01:53;23.70;33.20
3699;DHT22;1865;50.918;7.092;2023-06-14T07:04:19;23.90;32.50
3699;DHT22;1865;50.918;7.092;2023-06-14T07:06:46;23.90;32.20
3699;DHT22;1865;50.918;7.092;2023-06-14T07:09:12;24.00;33.70
3699;DHT22;1865;50.918;7.092;2023-06-14T07:11:40;23.90;32.70
3699;DHT22;1865;50.918;7.092;2023-06-14T07:14:05;24.00;32.50
3699;DHT22;1865;50.918;7.092;2023-06-14T07:16:31;24.10;31.80
3699;DHT22;1865;50.918;7.092;2023-06-14T07:18:57;24.20;31.50
3699;DHT22;1865;50.918;7.092;2023-06-14T07:21:22;24.20;31.50
3699;DHT22;1865;50.918;7.092;2023-06-14T07:23:48;24.30;31.70
3699;DHT22;1865;50.918;7.092;2023-06-14T07:26:13;24.40;32.00
3699;DHT22;1865;50.918;7.092;2023-06-14T07:28:39;24.30;32.40
3699;DHT22;1865;50.918;7.092;2023-06-14T07:31:04;24.40;30.30
3699;DHT22;1865;50.918;7.092;2023-06-14T07:33:30;24.50;31.00
3699;DHT22;1865;50.918;7.092;2023-06-14T07:35:56;24.60;30.00
3699;DHT22;1865;50.918;7.092;2023-06-14T07:38:21;24.70;29.80
3699;DHT22;1865;50.918;7.092;2023-06-14T07:40:47;24.70;29.20
3699;DHT22;1865;50.918;7.092;2023-06-14T07:43:12;24.80;28.40
3699;DHT22;1865;50.918;7.092;2023-06-14T07:45:38;24.80;27.90
3699;DHT22;1865;50.918;7.092;2023-06-14T07:48:04;24.90;27.50
3699;DHT22;1865;50.918;7.092;2023-06-14T07:50:29;25.00;25.80
3699;DHT22;1865;50.918;7.092;2023-06-14T07:52:55;24.90;25.90
3699;DHT22;1865;50.918;7.092;2023-06-14T07:55:21;25.10;26.80
3699;DHT22;1865;50.918;7.092;2023-06-14T07:57:46;25.00;25.60
3699;DHT22;1865;50.918;7.092;2023-06-14T08:00:12;25.00;25.80
3699;DHT22;1865;50.918;7.092;2023-06-14T08:02:41;25.20;26.40
3699;DHT22;1865;50.918;7.092;2023-06-14T08:05:09;25.30;25.60
3699;DHT22;1865;50.918;7.092;2023-06-14T08:07:36;25.40;24.50
3699;DHT22;1865;50.918;7.092;2023-06-14T08:10:02;25.50;24.30
3699;DHT22;1865;50.918;7.092;2023-06-14T08:12:28;25.60;25.10
3699;DHT22;1865;50.918;7.092;2023-06-14T08:14:54;25.70;24.50
3699;DHT22;1865;50.918;7.092;2023-06-14T08:17:19;25.60;23.00
3699;DHT22;1865;50.918;7.092;2023-06-14T08:19:45;25.70;24.00
3699;DHT22;1865;50.918;7.092;2023-06-14T08:22:11;25.90;24.70
3699;DHT22;1865;50.918;7.092;2023-06-14T08:24:37;25.90;23.50
3699;DHT22;1865;50.918;7.092;2023-06-14T08:27:03;26.10;23.50
3699;DHT22;1865;50.918;7.092;2023-06-14T08:29:28;25.80;23.30
3699;DHT22;1865;50.918;7.092;2023-06-14T08:31:57;25.70;23.10
3699;DHT22;1865;50.918;7.092;2023-06-14T08:34:23;25.80;23.10
3699;DHT22;1865;50.918;7.092;2023-06-14T08:36:50;25.80;23.00
3699;DHT22;1865;50.918;7.092;2023-06-14T08:39:16;25.90;22.80
3699;DHT22;1865;50.918;7.092;2023-06-14T08:41:44;25.90;22.40
3699;DHT22;1865;50.918;7.092;2023-06-14T08:44:11;26.10;22.80
3699;DHT22;1865;50.918;7.092;2023-06-14T08:46:37;26.20;23.10
3699;DHT22;1865;50.918;7.092;2023-06-14T08:49:04;26.20;22.40
3699;DHT22;1865;50.918;7.092;2023-06-14T08:51:31;26.40;23.10
3699;DHT22;1865;50.918;7.092;2023-06-14T08:54:02;26.50;22.80
3699;DHT22;1865;50.918;7.092;2023-06-14T08:56:30;26.50;23.10
3699;DHT22;1865;50.918;7.092;2023-06-14T08:58:57;26.50;22.30
3699;DHT22;1865;50.918;7.092;2023-06-14T09:01:25;26.50;22.70
3699;DHT22;1865;50.918;7.092;2023-06-14T09:03:52;26.50;22.80
3699;DHT22;1865;50.918;7.092;2023-06-14T09:06:20;26.60;22.80
3699;DHT22;1865;50.918;7.092;2023-06-14T09:08:48;26.60;23.20
3699;DHT22;1865;50.918;7.092;2023-06-14T09:11:15;26.70;22.90
3699;DHT22;1865;50.918;7.092;2023-06-14T09:13:42;26.70;23.50
3699;DHT22;1865;50.918;7.092;2023-06-14T09:16:08;26.80;24.70
3699;DHT22;1865;50.918;7.092;2023-06-14T09:18:44;26.80;24.30
3699;DHT22;1865;50.918;7.092;2023-06-14T09:21:13;26.80;22.90
3699;DHT22;1865;50.918;7.092;2023-06-14T09:23:43;26.80;23.80
3699;DHT22;1865;50.918;7.092;2023-06-14T09:26:13;26.80;23.00
3699;DHT22;1865;50.918;7.092;2023-06-14T09:28:43;26.90;22.90
3699;DHT22;1865;50.918;7.092;2023-06-14T09:31:10;26.80;24.90
3699;DHT22;1865;50.918;7.092;2023-06-14T09:33:36;26.70;24.60
3699;DHT22;1865;50.918;7.092;2023-06-14T09:36:02;26.70;24.10
3699;DHT22;1865;50.918;7.092;2023-06-14T09:38:28;26.70;25.10
3699;DHT22;1865;50.918;7.092;2023-06-14T09:40:57;26.80;23.60
3699;DHT22;1865;50.918;7.092;2023-06-14T09:43:23;26.90;24.80
3699;DHT22;1865;50.918;7.092;2023-06-14T09:45:48;27.00;23.70
3699;DHT22;1865;50.918;7.092;2023-06-14T09:48:16;27.00;25.40
3699;DHT22;1865;50.918;7.092;2023-06-14T09:50:45;27.10;23.60
3699;DHT22;1865;50.918;7.092;2023-06-14T09:53:11;27.00;22.50
3699;DHT22;1865;50.918;7.092;2023-06-14T09:55:38;27.10;24.80
3699;DHT22;1865;50.918;7.092;2023-06-14T09:58:07;27.20;25.10
3699;DHT22;1865;50.918;7.092;2023-06-14T10:00:33;27.30;24.80
3699;DHT22;1865;50.918;7.092;2023-06-14T10:03:28;27.50;22.90
3699;DHT22;1865;50.918;7.092;2023-06-14T10:05:52;27.40;22.80
3699;DHT22;1865;50.918;7.092;2023-06-14T10:08:20;27.40;23.90
3699;DHT22;1865;50.918;7.092;2023-06-14T10:10:47;27.40;23.70
3699;DHT22;1865;50.918;7.092;2023-06-14T10:13:14;27.00;23.50
3699;DHT22;1865;50.918;7.092;2023-06-14T10:16:12;27.10;24.30
3699;DHT22;1865;50.918;7.092;2023-06-14T10:21:51;27.60;25.40
3699;DHT22;1865;50.918;7.092;2023-06-14T10:24:29;27.70;24.30
3699;DHT22;1865;50.918;7.092;2023-06-14T10:26:57;27.80;23.60
3699;DHT22;1865;50.918;7.092;2023-06-14T10:29:23;28.00;23.10
3699;DHT22;1865;50.918;7.092;2023-06-14T10:31:50;28.00;23.30
3699;DHT22;1865;50.918;7.092;2023-06-14T10:37:05;28.10;23.90
3699;DHT22;1865;50.918;7.092;2023-06-14T10:39:32;27.70;23.10
3699;DHT22;1865;50.918;7.092;2023-06-14T10:42:01;27.70;24.00
3699;DHT22;1865;50.918;7.092;2023-06-14T10:44:38;27.90;24.20
3699;DHT22;1865;50.918;7.092;2023-06-14T10:47:10;28.00;24.50
3699;DHT22;1865;50.918;7.092;2023-06-14T10:49:50;28.00;24.70
3699;DHT22;1865;50.918;7.092;2023-06-14T10:52:16;28.10;23.90
3699;DHT22;1865;50.918;7.092;2023-06-14T10:57:35;28.30;24.90
3699;DHT22;1865;50.918;7.092;2023-06-14T11:00:03;28.30;24.50
3699;DHT22;1865;50.918;7.092;2023-06-14T11:08:17;30.00;24.10
3699;DHT22;1865;50.918;7.092;2023-06-14T11:10:45;31.10;23.00
3699;DHT22;1865;50.918;7.092;2023-06-14T11:13:13;31.60;21.80
3699;DHT22;1865;50.918;7.092;2023-06-14T11:15:44;31.70;19.70
3699;DHT22;1865;50.918;7.092;2023-06-14T11:18:12;31.60;19.50
3699;DHT22;1865;50.918;7.092;2023-06-14T11:20:39;31.20;19.60
3699;DHT22;1865;50.918;7.092;2023-06-14T11:23:05;30.90;20.00
3699;DHT22;1865;50.918;7.092;2023-06-14T11:25:31;30.90;20.20
3699;DHT22;1865;50.918;7.092;2023-06-14T11:27:57;31.20;21.20
3699;DHT22;1865;50.918;7.092;2023-06-14T11:30:24;31.20;23.30
3699;DHT22;1865;50.918;7.092;2023-06-14T11:32:52;30.80;22.90
3699;DHT22;1865;50.918;7.092;2023-06-14T11:35:19;30.40;22.90
3699;DHT22;1865;50.918;7.092;2023-06-14T11:37:45;30.00;22.70
3699;DHT22;1865;50.918;7.092;2023-06-14T11:40:11;29.70;23.00
3699;DHT22;1865;50.918;7.092;2023-06-14T11:42:39;29.40;22.30
3699;DHT22;1865;50.918;7.092;2023-06-14T11:45:08;29.20;22.00
3699;DHT22;1865;50.918;7.092;2023-06-14T11:47:34;29.00;23.00
3699;DHT22;1865;50.918;7.092;2023-06-14T11:50:05;28.90;22.90
3699;DHT22;1865;50.918;7.092;2023-06-14T11:52:32;29.00;23.00
3699;DHT22;1865;50.918;7.092;2023-06-14T11:54:58;29.00;22.60
3699;DHT22;1865;50.918;7.092;2023-06-14T11:57:25;28.80;22.10
3699;DHT22;1865;50.918;7.092;2023-06-14T11:59:51;28.80;22.00
3699;DHT22;1865;50.918;7.092;2023-06-14T12:02:17;29.00;23.40
3699;DHT22;1865;50.918;7.092;2023-06-14T12:04:43;29.10;22.10
3699;DHT22;1865;50.918;7.092;2023-06-14T12:07:16;29.20;22.80
3699;DHT22;1865;50.918;7.092;2023-06-14T12:12:28;29.80;21.50
3699;DHT22;1865;50.918;7.092;2023-06-14T12:14:57;30.10;21.00
3699;DHT22;1865;50.918;7.092;2023-06-14T12:17:22;30.20;21.20
3699;DHT22;1865;50.918;7.092;2023-06-14T12:19:49;30.00;22.40
3699;DHT22;1865;50.918;7.092;2023-06-14T12:22:16;30.00;22.30
3699;DHT22;1865;50.918;7.092;2023-06-14T12:24:45;30.10;21.80
3699;DHT22;1865;50.918;7.092;2023-06-14T12:27:11;30.40;21.40
3699;DHT22;1865;50.918;7.092;2023-06-14T12:29:41;30.80;20.80
3699;DHT22;1865;50.918;7.092;2023-06-14T12:32:09;30.70;19.90
3699;DHT22;1865;50.918;7.092;2023-06-14T12:34:35;30.40;20.40
3699;DHT22;1865;50.918;7.092;2023-06-14T12:37:01;29.80;20.80
3699;DHT22;1865;50.918;7.092;2023-06-14T12:39:26;29.50;21.20
3699;DHT22;1865;50.918;7.092;2023-06-14T12:41:53;29.40;21.50
3699;DHT22;1865;50.918;7.092;2023-06-14T12:44:19;29.30;21.90
3699;DHT22;1865;50.918;7.092;2023-06-14T12:46:45;29.20;22.50
3699;DHT22;1865;50.918;7.092;2023-06-14T12:49:11;29.30;22.30
3699;DHT22;1865;50.918;7.092;2023-06-14T12:51:40;29.10;22.30
3699;DHT22;1865;50.918;7.092;2023-06-14T12:54:06;29.10;22.20
3699;DHT22;1865;50.918;7.092;2023-06-14T12:56:32;28.90;22.60
3699;DHT22;1865;50.918;7.092;2023-06-14T12:58:58;29.10;22.40
3699;DHT22;1865;50.918;7.092;2023-06-14T13:01:23;29.40;20.80
3699;DHT22;1865;50.918;7.092;2023-06-14T13:03:49;29.70;21.60
3699;DHT22;1865;50.918;7.092;2023-06-14T13:06:17;30.00;21.60
3699;DHT22;1865;50.918;7.092;2023-06-14T13:08:43;30.30;21.00
3699;DHT22;1865;50.918;7.092;2023-06-14T13:11:08;30.50;20.60
3699;DHT22;1865;50.918;7.092;2023-06-14T13:13:34;30.60;21.80
3699;DHT22;1865;50.918;7.092;2023-06-14T13:15:59;30.30;21.00
3699;DHT22;1865;50.918;7.092;2023-06-14T13:18:25;30.10;20.00
3699;DHT22;1865;50.918;7.092;2023-06-14T13:20:51;30.00;20.00
3699;DHT22;1865;50.918;7.092;2023-06-14T13:23:17;30.20;20.40
3699;DHT22;1865;50.918;7.092;2023-06-14T13:25:42;30.90;19.90
3699;DHT22;1865;50.918;7.092;2023-06-14T13:28:08;32.10;19.20
3699;DHT22;1865;50.918;7.092;2023-06-14T13:30:34;33.00;18.80
3699;DHT22;1865;50.918;7.092;2023-06-14T13:33:00;33.70;17.90
3699;DHT22;1865;50.918;7.092;2023-06-14T13:35:26;34.70;17.40
3699;DHT22;1865;50.918;7.092;2023-06-14T13:37:52;35.60;17.10
3699;DHT22;1865;50.918;7.092;2023-06-14T13:40:18;36.10;16.30
3699;DHT22;1865;50.918;7.092;2023-06-14T13:42:43;36.00;16.00
3699;DHT22;1865;50.918;7.092;2023-06-14T13:45:11;35.40;16.30
3699;DHT22;1865;50.918;7.092;2023-06-14T13:47:37;35.60;16.20
3699;DHT22;1865;50.918;7.092;2023-06-14T13:50:04;36.50;15.70
3699;DHT22;1865;50.918;7.092;2023-06-14T13:52:30;36.90;14.80
3699;DHT22;1865;50.918;7.092;2023-06-14T13:54:55;36.80;15.40
3699;DHT22;1865;50.918;7.092;2023-06-14T13:57:21;36.80;15.50
3699;DHT22;1865;50.918;7.092;2023-06-14T13:59:47;37.20;15.40
3699;DHT22;1865;50.918;7.092;2023-06-14T14:02:12;37.10;16.30
3699;DHT22;1865;50.918;7.092;2023-06-14T14:04:38;37.80;15.20
3699;DHT22;1865;50.918;7.092;2023-06-14T14:07:05;38.80;15.10
3699;DHT22;1865;50.918;7.092;2023-06-14T14:09:34;40.20;14.70
3699;DHT22;1865;50.918;7.092;2023-06-14T14:12:01;40.00;14.10
3699;DHT22;1865;50.918;7.092;2023-06-14T14:14:28;39.00;14.70
3699;DHT22;1865;50.918;7.092;2023-06-14T14:16:53;38.90;15.00
3699;DHT22;1865;50.918;7.092;2023-06-14T14:19:20;38.00;15.40
3699;DHT22;1865;50.918;7.092;2023-06-14T14:21:47;37.90;15.20
3699;DHT22;1865;50.918;7.092;2023-06-14T14:24:12;38.50;15.10
3699;DHT22;1865;50.918;7.092;2023-06-14T14:26:38;38.20;15.10
3699;DHT22;1865;50.918;7.092;2023-06-14T14:29:04;37.50;15.20
3699;DHT22;1865;50.918;7.092;2023-06-14T14:31:30;36.40;15.80
3699;DHT22;1865;50.918;7.092;2023-06-14T14:33:56;35.30;16.50
3699;DHT22;1865;50.918;7.092;2023-06-14T14:36:21;34.40;17.20
3699;DHT22;1865;50.918;7.092;2023-06-14T14:38:47;33.80;17.30
3699;DHT22;1865;50.918;7.092;2023-06-14T14:41:13;32.80;17.70
3699;DHT22;1865;50.918;7.092;2023-06-14T14:43:39;31.70;18.70
3699;DHT22;1865;50.918;7.092;2023-06-14T14:46:04;31.40;19.10
3699;DHT22;1865;50.918;7.092;2023-06-14T14:48:30;31.10;19.70
3699;DHT22;1865;50.918;7.092;2023-06-14T14:50:55;30.90;19.40
3699;DHT22;1865;50.918;7.092;2023-06-14T14:53:21;30.50;20.20
3699;DHT22;1865;50.918;7.092;2023-06-14T14:55:46;30.30;19.70
3699;DHT22;1865;50.918;7.092;2023-06-14T14:58:12;30.00;20.30
3699;DHT22;1865;50.918;7.092;2023-06-14T15:00:38;29.80;20.00
3699;DHT22;1865;50.918;7.092;2023-06-14T15:03:03;29.70;20.50
3699;DHT22;1865;50.918;7.092;2023-06-14T15:05:29;29.40;20.70
3699;DHT22;1865;50.918;7.092;2023-06-14T15:07:55;29.30;20.70
3699;DHT22;1865;50.918;7.092;2023-06-14T15:10:20;29.40;21.10
3699;DHT22;1865;50.918;7.092;2023-06-14T15:12:46;29.40;20.80
3699;DHT22;1865;50.918;7.092;2023-06-14T15:15:11;29.60;21.40
3699;DHT22;1865;50.918;7.092;2023-06-14T15:17:37;29.60;20.80
3699;DHT22;1865;50.918;7.092;2023-06-14T15:20:03;29.30;20.60
3699;DHT22;1865;50.918;7.092;2023-06-14T15:22:29;29.30;21.00
3699;DHT22;1865;50.918;7.092;2023-06-14T15:24:55;29.20;21.00
3699;DHT22;1865;50.918;7.092;2023-06-14T15:27:20;29.30;20.90
3699;DHT22;1865;50.918;7.092;2023-06-14T15:29:46;29.10;20.30
3699;DHT22;1865;50.918;7.092;2023-06-14T15:32:11;29.20;21.60
3699;DHT22;1865;50.918;7.092;2023-06-14T15:34:37;29.20;21.30
3699;DHT22;1865;50.918;7.092;2023-06-14T15:37:07;29.20;21.50
3699;DHT22;1865;50.918;7.092;2023-06-14T15:39:33;29.30;21.30
3699;DHT22;1865;50.918;7.092;2023-06-14T15:41:59;29.30;20.90
3699;DHT22;1865;50.918;7.092;2023-06-14T15:44:25;29.30;21.80
3699;DHT22;1865;50.918;7.092;2023-06-14T15:46:51;29.40;22.00
3699;DHT22;1865;50.918;7.092;2023-06-14T15:49:16;29.50;21.50
3699;DHT22;1865;50.918;7.092;2023-06-14T15:51:42;29.50;23.40
3699;DHT22;1865;50.918;7.092;2023-06-14T15:54:07;29.40;21.70
3699;DHT22;1865;50.918;7.092;2023-06-14T15:56:33;29.40;22.00
3699;DHT22;1865;50.918;7.092;2023-06-14T15:58:59;29.40;22.30
3699;DHT22;1865;50.918;7.092;2023-06-14T16:01:26;29.20;21.00
3699;DHT22;1865;50.918;7.092;2023-06-14T16:03:51;28.80;20.90
3699;DHT22;1865;50.918;7.092;2023-06-14T16:06:17;28.70;21.70
3699;DHT22;1865;50.918;7.092;2023-06-14T16:08:44;28.90;22.20
3699;DHT22;1865;50.918;7.092;2023-06-14T16:11:09;28.80;20.90
3699;DHT22;1865;50.918;7.092;2023-06-14T16:13:35;28.80;21.20
3699;DHT22;1865;50.918;7.092;2023-06-14T16:16:01;28.80;22.00
3699;DHT22;1865;50.918;7.092;2023-06-14T16:18:26;28.80;21.50
3699;DHT22;1865;50.918;7.092;2023-06-14T16:20:52;28.80;22.20